Urb Regional, Puerto Rico
Current Conditions -  °F | °C
As of 5:50 PM on Thursday 18 Dec 2014 (Local Time) from TJBQ Reporting Station
Scattered Clouds Scattered Clouds  
Wind Chill: 77°   Ceiling: Unl
Heat Index: 79°   Visibility: 10mi
Dew Point: 66°   Wind: 12mph
Humidity: 69%   Direction: 70°ENE
Pressure: 30"   Gusts: 21mph
Location:  18.4739°N, 66.7295°W
Report Text: TJBQ 182150Z 07010G18KT 10SM SCT028 SCT035 25/19 A3000 RMK RWY08 ATIS B
Loading
Personal Weather Stations






























Interactive Weather Map New forecast layout! Learn more

10-Day Weather Forecast

Advertisements
Track Severe Weather on mobile